Lombardville, Illinois
Current Conditions -  °F | °C
As of 6:15 PM on Friday 24 Oct 2014 (Local Time) from KC75 Reporting Station
Clear Clear  
Wind Chill: 15°   Ceiling: Unl
Heat Index: 15°   Visibility: 10mi
Dew Point:   Wind: 5mph
Humidity: 68%   Direction: 150°SSE
Pressure: 29.95"   Gusts: NA
Location:  41.1472°N, 89.6399°W
Report Text: KC75 242315Z AUTO 15004KT 10SM CLR 15/09 A2995 RMK AO2 T01480090
Loading
Personal Weather Stations






























Interactive Weather Map
Tropical Storm Tracking
New forecast layout! Learn more

10-Day Weather Forecast

Advertisements
Track Severe Weather on mobile